This is the latest recevied weather packets stored in our database for station/object LKCS. If no packets are shown the sender has not sent any weather packets the latest 1 day(s).
| Time | Temp. | Humidity | Pressure | Rain* | Wind** | Luminosity | Snow |
|---|---|---|---|---|---|---|---|
| 1778153582 | 15.56° C | 51% | 1013 hPa | - | - | - | - |
| 1778152683 | 15.56° C | 51% | 1013 hPa | - | - | - | - |
| 1778151782 | 15.56° C | 51% | 1013 hPa | - | - | - | - |
| 1778150882 | 16.67° C | 51% | 1012 hPa | - | - | - | - |
| 1778149982 | 16.67° C | 51% | 1012 hPa | - | - | - | - |
| 1778149082 | 15.56° C | 51% | 1012 hPa | - | - | - | - |
| 1778148181 | 15.56° C | 51% | 1012 hPa | - | - | - | - |
| 1778147282 | 15.56° C | 51% | 1012 hPa | - | - | - | - |
| 1778146381 | 15.56° C | 51% | 1012 hPa | - | - | - | - |
| 1778145482 | 15° C | 58% | 1012 hPa | - | - | - | - |
| 1778144582 | 15° C | 58% | 1012 hPa | - | - | - | - |
| 1778143683 | 15.56° C | 55% | 1012 hPa | - | - | - | - |
| 1778142782 | 15.56° C | 55% | 1012 hPa | - | - | - | - |
| 1778141883 | 15° C | 54% | 1011 hPa | - | - | - | - |
| 1778140982 | 15° C | 54% | 1011 hPa | - | - | - | - |
| 1778140083 | 13.89° C | 58% | 1012 hPa | - | - | - | - |
| 1778139182 | 13.89° C | 58% | 1012 hPa | - | - | - | - |
| 1778138283 | 13.89° C | 62% | 1012 hPa | - | - | - | - |
| 1778137382 | 13.89° C | 62% | 1012 hPa | - | - | - | - |
| 1778136482 | 12.78° C | 66% | 1012 hPa | - | - | - | - |
| 1778135582 | 12.78° C | 66% | 1012 hPa | - | - | - | - |
| 1778134682 | 11.67° C | 71% | 1011 hPa | - | - | - | - |
| 1778133781 | 11.67° C | 71% | 1011 hPa | - | - | - | - |
| 1778132882 | 10.56° C | 81% | 1011 hPa | - | - | - | - |
| 1778131981 | 10.56° C | 81% | 1011 hPa | - | - | - | - |
* Rain since midnight (hover to see other rain measurements)
** Current wind speed in m/s (hover to see current wind gust speed)